sensor_id;sensor_type;location;lat;lon;timestamp;pressure;altitude;pressure_sealevel;temperature;humidity
68948;BME280;55996;49.546;7.400;2024-03-02T00:00:54;97314.63;;;3.93;100.00
68948;BME280;55996;49.546;7.400;2024-03-02T00:03:20;97314.81;;;3.86;100.00
68948;BME280;55996;49.546;7.400;2024-03-02T00:05:51;97301.59;;;3.97;100.00
68948;BME280;55996;49.546;7.400;2024-03-02T00:08:23;97288.72;;;3.96;100.00
68948;BME280;55996;49.546;7.400;2024-03-02T00:10:51;97295.25;;;4.08;100.00
68948;BME280;55996;49.546;7.400;2024-03-02T00:13:20;97305.59;;;4.08;100.00
68948;BME280;55996;49.546;7.400;2024-03-02T00:18:27;97293.28;;;4.16;100.00
68948;BME280;55996;49.546;7.400;2024-03-02T00:20:56;97309.38;;;4.26;100.00
68948;BME280;55996;49.546;7.400;2024-03-02T00:23:22;97299.25;;;4.18;100.00
68948;BME280;55996;49.546;7.400;2024-03-02T00:25:49;97263.59;;;3.99;100.00
68948;BME280;55996;49.546;7.400;2024-03-02T00:28:17;97296.53;;;4.23;100.00
68948;BME280;55996;49.546;7.400;2024-03-02T00:33:19;97294.31;;;4.10;100.00
68948;BME280;55996;49.546;7.400;2024-03-02T00:35:45;97297.75;;;4.11;100.00
68948;BME280;55996;49.546;7.400;2024-03-02T00:38:11;97300.53;;;4.03;100.00
68948;BME280;55996;49.546;7.400;2024-03-02T00:40:37;97293.13;;;3.91;100.00
68948;BME280;55996;49.546;7.400;2024-03-02T00:43:02;97296.72;;;3.86;100.00
68948;BME280;55996;49.546;7.400;2024-03-02T00:45:31;97289.06;;;3.83;100.00
68948;BME280;55996;49.546;7.400;2024-03-02T00:47:56;97298.81;;;3.74;100.00
68948;BME280;55996;49.546;7.400;2024-03-02T00:50:22;97277.97;;;3.78;100.00
68948;BME280;55996;49.546;7.400;2024-03-02T00:52:47;97297.13;;;3.72;100.00
68948;BME280;55996;49.546;7.400;2024-03-02T00:55:15;97283.31;;;3.74;100.00
68948;BME280;55996;49.546;7.400;2024-03-02T00:57:41;97287.47;;;3.48;100.00
68948;BME280;55996;49.546;7.400;2024-03-02T01:00:07;97273.06;;;3.39;100.00
68948;BME280;55996;49.546;7.400;2024-03-02T01:02:35;97281.09;;;3.28;100.00
68948;BME280;55996;49.546;7.400;2024-03-02T01:05:01;97285.72;;;3.48;100.00
68948;BME280;55996;49.546;7.400;2024-03-02T01:07:26;97298.13;;;3.35;100.00
68948;BME280;55996;49.546;7.400;2024-03-02T01:09:51;97295.59;;;3.34;100.00
68948;BME280;55996;49.546;7.400;2024-03-02T01:12:17;97298.88;;;3.39;100.00
68948;BME280;55996;49.546;7.400;2024-03-02T01:14:42;97295.59;;;3.34;100.00
68948;BME280;55996;49.546;7.400;2024-03-02T01:17:07;97289.28;;;3.44;100.00
68948;BME280;55996;49.546;7.400;2024-03-02T01:19:33;97288.56;;;3.39;100.00
68948;BME280;55996;49.546;7.400;2024-03-02T01:21:58;97283.44;;;3.36;100.00
68948;BME280;55996;49.546;7.400;2024-03-02T01:24:24;97287.00;;;3.32;100.00
68948;BME280;55996;49.546;7.400;2024-03-02T01:26:49;97283.56;;;3.33;100.00
68948;BME280;55996;49.546;7.400;2024-03-02T01:29:14;97282.53;;;3.38;100.00
68948;BME280;55996;49.546;7.400;2024-03-02T01:31:40;97281.84;;;3.32;100.00
68948;BME280;55996;49.546;7.400;2024-03-02T01:34:07;97268.97;;;3.30;100.00
68948;BME280;55996;49.546;7.400;2024-03-02T01:36:33;97286.75;;;3.41;100.00
68948;BME280;55996;49.546;7.400;2024-03-02T01:38:58;97285.75;;;3.47;100.00
68948;BME280;55996;49.546;7.400;2024-03-02T01:41:24;97281.75;;;3.35;100.00
68948;BME280;55996;49.546;7.400;2024-03-02T01:43:49;97285.16;;;3.37;100.00
68948;BME280;55996;49.546;7.400;2024-03-02T01:46:15;97283.06;;;3.51;100.00
68948;BME280;55996;49.546;7.400;2024-03-02T01:48:40;97278.06;;;3.45;100.00
68948;BME280;55996;49.546;7.400;2024-03-02T01:51:06;97270.25;;;3.47;100.00
68948;BME280;55996;49.546;7.400;2024-03-02T01:53:32;97267.44;;;3.54;100.00
68948;BME280;55996;49.546;7.400;2024-03-02T01:55:57;97277.84;;;3.53;100.00
68948;BME280;55996;49.546;7.400;2024-03-02T01:58:23;97270.75;;;3.60;100.00
68948;BME280;55996;49.546;7.400;2024-03-02T02:00:48;97284.41;;;3.65;100.00
68948;BME280;55996;49.546;7.400;2024-03-02T02:03:14;97264.56;;;3.65;100.00
68948;BME280;55996;49.546;7.400;2024-03-02T02:05:42;97262.81;;;3.66;100.00
68948;BME280;55996;49.546;7.400;2024-03-02T02:08:07;97278.09;;;3.75;100.00
68948;BME280;55996;49.546;7.400;2024-03-02T02:10:33;97264.56;;;3.65;100.00
68948;BME280;55996;49.546;7.400;2024-03-02T02:12:58;97249.91;;;3.66;100.00
68948;BME280;55996;49.546;7.400;2024-03-02T02:15:30;97258.47;;;3.68;100.00
68948;BME280;55996;49.546;7.400;2024-03-02T02:17:57;97251.59;;;3.67;100.00
68948;BME280;55996;49.546;7.400;2024-03-02T02:20:23;97254.00;;;3.73;100.00
68948;BME280;55996;49.546;7.400;2024-03-02T02:23:07;97256.47;;;3.78;100.00
68948;BME280;55996;49.546;7.400;2024-03-02T02:25:35;97241.00;;;3.76;100.00
68948;BME280;55996;49.546;7.400;2024-03-02T02:28:00;97243.41;;;3.82;100.00
68948;BME280;55996;49.546;7.400;2024-03-02T02:30:31;97256.25;;;3.85;100.00
68948;BME280;55996;49.546;7.400;2024-03-02T02:32:57;97235.75;;;3.79;100.00
68948;BME280;55996;49.546;7.400;2024-03-02T02:35:23;97225.75;;;3.67;100.00
68948;BME280;55996;49.546;7.400;2024-03-02T02:37:53;97250.28;;;3.83;100.00
68948;BME280;55996;49.546;7.400;2024-03-02T02:40:19;97254.59;;;3.83;100.00
68948;BME280;55996;49.546;7.400;2024-03-02T02:42:44;97246.31;;;3.71;100.00
68948;BME280;55996;49.546;7.400;2024-03-02T02:45:10;97254.91;;;3.72;100.00
68948;BME280;55996;49.546;7.400;2024-03-02T02:47:36;97241.31;;;3.65;100.00
68948;BME280;55996;49.546;7.400;2024-03-02T02:50:02;97238.56;;;3.71;100.00
68948;BME280;55996;49.546;7.400;2024-03-02T02:52:32;97228.28;;;3.70;100.00
68948;BME280;55996;49.546;7.400;2024-03-02T02:55:03;97243.91;;;3.65;100.00
68948;BME280;55996;49.546;7.400;2024-03-02T02:57:29;97236.44;;;3.56;100.00
68948;BME280;55996;49.546;7.400;2024-03-02T02:59:56;97240.84;;;3.51;100.00
68948;BME280;55996;49.546;7.400;2024-03-02T03:02:21;97230.31;;;3.59;100.00
68948;BME280;55996;49.546;7.400;2024-03-02T03:04:49;97223.44;;;3.58;100.00
68948;BME280;55996;49.546;7.400;2024-03-02T03:07:14;97238.25;;;3.51;100.00
68948;BME280;55996;49.546;7.400;2024-03-02T03:09:40;97219.53;;;3.44;100.00
68948;BME280;55996;49.546;7.400;2024-03-02T03:12:05;97217.75;;;3.46;100.00
68948;BME280;55996;49.546;7.400;2024-03-02T03:14:30;97224.69;;;3.44;100.00
68948;BME280;55996;49.546;7.400;2024-03-02T03:16:56;97222.06;;;3.46;100.00
68948;BME280;55996;49.546;7.400;2024-03-02T03:19:21;97221.81;;;3.53;100.00
68948;BME280;55996;49.546;7.400;2024-03-02T03:21:46;97218.34;;;3.56;100.00
68948;BME280;55996;49.546;7.400;2024-03-02T03:24:12;97220.75;;;3.61;100.00
68948;BME280;55996;49.546;7.400;2024-03-02T03:26:37;97197.56;;;3.59;100.00
68948;BME280;55996;49.546;7.400;2024-03-02T03:29:03;97215.34;;;3.70;100.00
68948;BME280;55996;49.546;7.400;2024-03-02T03:31:29;97202.47;;;3.68;100.00
68948;BME280;55996;49.546;7.400;2024-03-02T03:33:54;97232.13;;;3.85;100.00
68948;BME280;55996;49.546;7.400;2024-03-02T03:36:20;97213.47;;;3.75;100.00
68948;BME280;55996;49.546;7.400;2024-03-02T03:38:45;97215.75;;;3.84;100.00
68948;BME280;55996;49.546;7.400;2024-03-02T03:41:11;97217.56;;;3.82;100.00
68948;BME280;55996;49.546;7.400;2024-03-02T03:43:36;97217.56;;;3.82;100.00
68948;BME280;55996;49.546;7.400;2024-03-02T03:46:01;97217.44;;;3.87;100.00
68948;BME280;55996;49.546;7.400;2024-03-02T03:48:27;97215.59;;;3.91;100.00
68948;BME280;55996;49.546;7.400;2024-03-02T03:50:56;97225.78;;;3.95;100.00
68948;BME280;55996;49.546;7.400;2024-03-02T03:53:21;97218.91;;;3.96;100.00
68948;BME280;55996;49.546;7.400;2024-03-02T03:55:47;97212.22;;;3.88;100.00
68948;BME280;55996;49.546;7.400;2024-03-02T03:58:14;97211.50;;;3.83;100.00
68948;BME280;55996;49.546;7.400;2024-03-02T04:00:41;97214.69;;;3.92;100.00
68948;BME280;55996;49.546;7.400;2024-03-02T04:03:07;97212.72;;;4.00;100.00
68948;BME280;55996;49.546;7.400;2024-03-02T04:05:32;97226.00;;;4.17;100.00
68948;BME280;55996;49.546;7.400;2024-03-02T04:07:58;97226.69;;;4.23;100.00
68948;BME280;55996;49.546;7.400;2024-03-02T04:10:23;97222.50;;;4.18;100.00
68948;BME280;55996;49.546;7.400;2024-03-02T04:12:49;97230.47;;;4.12;100.00
68948;BME280;55996;49.546;7.400;2024-03-02T04:15:16;97213.50;;;4.03;100.00
68948;BME280;55996;49.546;7.400;2024-03-02T04:17:41;97211.72;;;4.04;100.00
68948;BME280;55996;49.546;7.400;2024-03-02T04:20:07;97236.66;;;4.07;100.00
68948;BME280;55996;49.546;7.400;2024-03-02T04:22:33;97227.13;;;4.09;100.00
68948;BME280;55996;49.546;7.400;2024-03-02T04:25:01;97240.63;;;4.18;100.00
68948;BME280;55996;49.546;7.400;2024-03-02T04:27:27;97234.00;;;4.10;100.00
68948;BME280;55996;49.546;7.400;2024-03-02T04:29:52;97221.28;;;4.02;100.00
68948;BME280;55996;49.546;7.400;2024-03-02T04:32:17;97233.81;;;4.16;100.00
68948;BME280;55996;49.546;7.400;2024-03-02T04:34:44;97225.78;;;3.95;100.00
68948;BME280;55996;49.546;7.400;2024-03-02T04:37:10;97234.03;;;4.08;100.00
68948;BME280;55996;49.546;7.400;2024-03-02T04:39:37;97237.41;;;4.10;100.00
68948;BME280;55996;49.546;7.400;2024-03-02T04:42:02;97240.09;;;4.07;100.00
68948;BME280;55996;49.546;7.400;2024-03-02T04:44:28;97245.09;;;4.13;100.00
68948;BME280;55996;49.546;7.400;2024-03-02T04:46:53;97235.63;;;4.12;100.00
68948;BME280;55996;49.546;7.400;2024-03-02T04:49:18;97238.84;;;4.20;100.00
68948;BME280;55996;49.546;7.400;2024-03-02T04:51:44;97254.31;;;4.22;100.00
68948;BME280;55996;49.546;7.400;2024-03-02T04:54:09;97248.19;;;4.25;100.00
68948;BME280;55996;49.546;7.400;2024-03-02T04:56:35;97256.75;;;4.27;100.00
68948;BME280;55996;49.546;7.400;2024-03-02T04:59:20;97257.59;;;4.27;100.00
68948;BME280;55996;49.546;7.400;2024-03-02T05:01:46;97254.88;;;4.32;100.00
68948;BME280;55996;49.546;7.400;2024-03-02T05:04:12;97258.28;;;4.32;100.00
68948;BME280;55996;49.546;7.400;2024-03-02T05:06:41;97272.81;;;4.36;100.00
68948;BME280;55996;49.546;7.400;2024-03-02T05:09:07;97267.09;;;4.27;100.00
68948;BME280;55996;49.546;7.400;2024-03-02T05:11:33;97259.84;;;4.38;100.00
68948;BME280;55996;49.546;7.400;2024-03-02T05:14:05;97263.53;;;4.31;100.00
68948;BME280;55996;49.546;7.400;2024-03-02T05:16:35;97265.84;;;4.39;100.00
68948;BME280;55996;49.546;7.400;2024-03-02T05:19:00;97267.41;;;4.44;100.00
68948;BME280;55996;49.546;7.400;2024-03-02T05:21:26;97258.16;;;4.37;100.00
68948;BME280;55996;49.546;7.400;2024-03-02T05:23:51;97253.03;;;4.35;100.00
68948;BME280;55996;49.546;7.400;2024-03-02T05:26:17;97260.69;;;4.39;100.00
68948;BME280;55996;49.546;7.400;2024-03-02T05:28:42;97262.38;;;4.40;100.00
68948;BME280;55996;49.546;7.400;2024-03-02T05:31:11;97251.09;;;4.42;100.00
68948;BME280;55996;49.546;7.400;2024-03-02T05:33:39;97265.72;;;4.43;100.00
68948;BME280;55996;49.546;7.400;2024-03-02T05:36:04;97260.63;;;4.40;100.00
68948;BME280;55996;49.546;7.400;2024-03-02T05:38:30;97267.31;;;4.47;100.00
68948;BME280;55996;49.546;7.400;2024-03-02T05:40:56;97278.56;;;4.46;100.00
68948;BME280;55996;49.546;7.400;2024-03-02T05:43:21;97260.81;;;4.34;100.00
68948;BME280;55996;49.546;7.400;2024-03-02T05:45:46;97265.59;;;4.48;100.00
68948;BME280;55996;49.546;7.400;2024-03-02T05:48:12;97258.72;;;4.47;100.00
68948;BME280;55996;49.546;7.400;2024-03-02T05:50:38;97259.53;;;4.47;100.00
68948;BME280;55996;49.546;7.400;2024-03-02T05:53:03;97276.69;;;4.51;100.00
68948;BME280;55996;49.546;7.400;2024-03-02T05:55:29;97262.06;;;4.50;100.00
68948;BME280;55996;49.546;7.400;2024-03-02T05:57:54;97267.22;;;4.50;100.00
68948;BME280;55996;49.546;7.400;2024-03-02T06:00:32;97269.00;;;4.48;100.00
68948;BME280;55996;49.546;7.400;2024-03-02T06:02:57;97273.09;;;4.56;100.00
68948;BME280;55996;49.546;7.400;2024-03-02T06:05:23;97270.47;;;4.57;100.00
68948;BME280;55996;49.546;7.400;2024-03-02T06:07:50;97266.22;;;4.55;100.00
68948;BME280;55996;49.546;7.400;2024-03-02T06:10:15;97261.31;;;4.47;100.00
68948;BME280;55996;49.546;7.400;2024-03-02T06:12:41;97274.03;;;4.53;100.00
68948;BME280;55996;49.546;7.400;2024-03-02T06:15:06;97263.59;;;4.56;100.00
68948;BME280;55996;49.546;7.400;2024-03-02T06:17:32;97268.13;;;4.49;100.00
68948;BME280;55996;49.546;7.400;2024-03-02T06:19:58;97268.94;;;4.51;100.00
68948;BME280;55996;49.546;7.400;2024-03-02T06:22:23;97278.53;;;4.48;100.00
68948;BME280;55996;49.546;7.400;2024-03-02T06:24:50;97277.06;;;4.39;100.00
68948;BME280;55996;49.546;7.400;2024-03-02T06:27:16;97284.78;;;4.41;100.00
68948;BME280;55996;49.546;7.400;2024-03-02T06:29:41;97286.44;;;4.43;100.00
68948;BME280;55996;49.546;7.400;2024-03-02T06:32:07;97291.28;;;4.54;100.00
68948;BME280;55996;49.546;7.400;2024-03-02T06:34:32;97299.69;;;4.61;100.00
68948;BME280;55996;49.546;7.400;2024-03-02T06:36:58;97293.69;;;4.59;100.00
68948;BME280;55996;49.546;7.400;2024-03-02T06:39:23;97294.56;;;4.59;100.00
68948;BME280;55996;49.546;7.400;2024-03-02T06:41:48;97307.34;;;4.64;100.00
68948;BME280;55996;49.546;7.400;2024-03-02T06:44:14;97308.94;;;4.68;100.00
68948;BME280;55996;49.546;7.400;2024-03-02T06:46:39;97297.78;;;4.66;100.00
68948;BME280;55996;49.546;7.400;2024-03-02T06:49:04;97307.75;;;4.78;100.00
68948;BME280;55996;49.546;7.400;2024-03-02T06:51:30;97309.44;;;4.79;100.00
68948;BME280;55996;49.546;7.400;2024-03-02T06:53:55;97316.91;;;4.89;100.00
68948;BME280;55996;49.546;7.400;2024-03-02T06:56:21;97316.00;;;4.91;100.00
68948;BME280;55996;49.546;7.400;2024-03-02T06:58:46;97309.06;;;4.92;100.00
68948;BME280;55996;49.546;7.400;2024-03-02T07:01:12;97313.63;;;4.83;100.00
68948;BME280;55996;49.546;7.400;2024-03-02T07:03:38;97320.41;;;4.88;100.00
68948;BME280;55996;49.546;7.400;2024-03-02T07:06:05;97333.06;;;4.97;100.00
68948;BME280;55996;49.546;7.400;2024-03-02T07:08:30;97317.47;;;4.98;100.00
68948;BME280;55996;49.546;7.400;2024-03-02T07:10:56;97313.59;;;4.85;100.00
68948;BME280;55996;49.546;7.400;2024-03-02T07:13:22;97310.09;;;4.86;100.00
68948;BME280;55996;49.546;7.400;2024-03-02T07:15:47;97310.69;;;4.94;100.00
68948;BME280;55996;49.546;7.400;2024-03-02T07:18:25;97324.88;;;5.09;100.00
68948;BME280;55996;49.546;7.400;2024-03-02T07:20:50;97322.78;;;5.21;100.00
68948;BME280;55996;49.546;7.400;2024-03-02T07:23:16;97327.75;;;5.27;100.00
68948;BME280;55996;49.546;7.400;2024-03-02T07:25:41;97325.75;;;5.35;100.00
68948;BME280;55996;49.546;7.400;2024-03-02T07:28:07;97329.38;;;5.29;100.00
68948;BME280;55996;49.546;7.400;2024-03-02T07:30:33;97319.69;;;5.36;100.00
68948;BME280;55996;49.546;7.400;2024-03-02T07:32:59;97322.84;;;5.44;100.00
68948;BME280;55996;49.546;7.400;2024-03-02T07:35:25;97325.41;;;5.46;100.00
68948;BME280;55996;49.546;7.400;2024-03-02T07:37:53;97325.94;;;5.56;100.00
68948;BME280;55996;49.546;7.400;2024-03-02T07:40:19;97329.06;;;5.64;100.00
68948;BME280;55996;49.546;7.400;2024-03-02T07:42:45;97315.00;;;5.71;100.00
68948;BME280;55996;49.546;7.400;2024-03-02T07:45:10;97314.25;;;5.93;100.00
68948;BME280;55996;49.546;7.400;2024-03-02T07:47:36;97323.41;;;6.03;100.00
68948;BME280;55996;49.546;7.400;2024-03-02T07:50:02;97322.84;;;5.93;100.00
68948;BME280;55996;49.546;7.400;2024-03-02T07:52:28;97306.91;;;5.80;100.00
68948;BME280;55996;49.546;7.400;2024-03-02T07:54:54;97323.00;;;5.89;100.00
68948;BME280;55996;49.546;7.400;2024-03-02T07:57:20;97326.75;;;6.05;100.00
68948;BME280;55996;49.546;7.400;2024-03-02T07:59:46;97326.59;;;6.10;100.00
68948;BME280;55996;49.546;7.400;2024-03-02T08:02:12;97332.00;;;6.27;100.00
68948;BME280;55996;49.546;7.400;2024-03-02T08:04:37;97330.81;;;6.36;100.00
68948;BME280;55996;49.546;7.400;2024-03-02T08:07:03;97330.72;;;6.39;100.00
68948;BME280;55996;49.546;7.400;2024-03-02T08:09:29;97322.13;;;6.37;100.00
68948;BME280;55996;49.546;7.400;2024-03-02T08:11:55;97330.34;;;6.49;100.00
68948;BME280;55996;49.546;7.400;2024-03-02T08:14:22;97338.88;;;6.74;100.00
68948;BME280;55996;49.546;7.400;2024-03-02T08:16:47;97338.78;;;6.98;100.00
68948;BME280;55996;49.546;7.400;2024-03-02T08:19:12;97349.09;;;7.01;100.00
68948;BME280;55996;49.546;7.400;2024-03-02T08:21:38;97333.34;;;7.04;100.00
68948;BME280;55996;49.546;7.400;2024-03-02T08:24:04;97336.41;;;7.14;100.00
68948;BME280;55996;49.546;7.400;2024-03-02T08:26:29;97335.72;;;7.31;100.00
68948;BME280;55996;49.546;7.400;2024-03-02T08:28:57;97337.81;;;7.43;100.00
68948;BME280;55996;49.546;7.400;2024-03-02T08:31:23;97342.63;;;7.53;100.00
68948;BME280;55996;49.546;7.400;2024-03-02T08:33:48;97328.22;;;7.46;100.00
68948;BME280;55996;49.546;7.400;2024-03-02T08:36:14;97335.97;;;7.66;100.00
68948;BME280;55996;49.546;7.400;2024-03-02T08:38:40;97326.75;;;7.80;100.00
68948;BME280;55996;49.546;7.400;2024-03-02T08:41:06;97324.31;;;8.15;100.00
68948;BME280;55996;49.546;7.400;2024-03-02T08:43:32;97326.78;;;8.18;100.00
68948;BME280;55996;49.546;7.400;2024-03-02T08:45:58;97322.66;;;8.14;100.00
68948;BME280;55996;49.546;7.400;2024-03-02T08:48:23;97338.00;;;8.58;100.00
68948;BME280;55996;49.546;7.400;2024-03-02T08:50:49;97321.88;;;8.69;100.00
68948;BME280;55996;49.546;7.400;2024-03-02T08:53:14;97327.53;;;8.60;100.00
68948;BME280;55996;49.546;7.400;2024-03-02T08:55:46;97327.28;;;8.45;100.00
68948;BME280;55996;49.546;7.400;2024-03-02T08:58:12;97334.13;;;8.29;100.00
68948;BME280;55996;49.546;7.400;2024-03-02T09:00:38;97329.94;;;8.24;100.00
68948;BME280;55996;49.546;7.400;2024-03-02T09:03:04;97332.22;;;8.32;100.00
68948;BME280;55996;49.546;7.400;2024-03-02T09:05:29;97323.41;;;8.35;100.00
68948;BME280;55996;49.546;7.400;2024-03-02T09:07:55;97324.53;;;8.29;100.00
68948;BME280;55996;49.546;7.400;2024-03-02T09:10:20;97326.72;;;8.38;100.00
68948;BME280;55996;49.546;7.400;2024-03-02T09:12:46;97314.00;;;8.32;100.00
68948;BME280;55996;49.546;7.400;2024-03-02T09:15:12;97319.75;;;8.39;100.00
68948;BME280;55996;49.546;7.400;2024-03-02T09:17:37;97328.84;;;8.30;100.00
68948;BME280;55996;49.546;7.400;2024-03-02T09:20:03;97310.09;;;8.22;100.00
68948;BME280;55996;49.546;7.400;2024-03-02T09:22:29;97332.22;;;8.32;100.00
68948;BME280;55996;49.546;7.400;2024-03-02T09:24:55;97295.84;;;8.12;100.00
68948;BME280;55996;49.546;7.400;2024-03-02T09:27:21;97288.66;;;8.17;100.00
68948;BME280;55996;49.546;7.400;2024-03-02T09:29:47;97309.25;;;8.40;100.00
68948;BME280;55996;49.546;7.400;2024-03-02T09:32:13;97307.88;;;8.52;100.00
68948;BME280;55996;49.546;7.400;2024-03-02T09:34:39;97294.56;;;8.59;100.00
68948;BME280;55996;49.546;7.400;2024-03-02T09:37:07;97323.09;;;8.79;100.00
68948;BME280;55996;49.546;7.400;2024-03-02T09:39:33;97309.66;;;8.88;100.00
68948;BME280;55996;49.546;7.400;2024-03-02T09:42:03;97304.13;;;8.77;100.00
68948;BME280;55996;49.546;7.400;2024-03-02T09:44:29;97294.63;;;8.94;100.00
68948;BME280;55996;49.546;7.400;2024-03-02T09:46:55;97315.25;;;9.16;100.00
68948;BME280;55996;49.546;7.400;2024-03-02T09:49:21;97309.84;;;9.20;100.00
68948;BME280;55996;49.546;7.400;2024-03-02T09:51:48;97305.22;;;9.26;100.00
68948;BME280;55996;49.546;7.400;2024-03-02T09:54:15;97309.22;;;9.33;100.00
68948;BME280;55996;49.546;7.400;2024-03-02T09:56:41;97297.41;;;8.91;100.00
68948;BME280;55996;49.546;7.400;2024-03-02T09:59:06;97297.78;;;9.18;100.00
68948;BME280;55996;49.546;7.400;2024-03-02T10:01:33;97293.31;;;9.37;100.00
68948;BME280;55996;49.546;7.400;2024-03-02T10:03:59;97296.06;;;9.52;100.00
68948;BME280;55996;49.546;7.400;2024-03-02T10:06:26;97302.66;;;9.59;100.00
68948;BME280;55996;49.546;7.400;2024-03-02T10:08:53;97303.22;;;9.82;100.00
68948;BME280;55996;49.546;7.400;2024-03-02T10:11:36;97288.09;;;9.89;100.00
68948;BME280;55996;49.546;7.400;2024-03-02T10:14:06;97295.28;;;10.17;100.00
68948;BME280;55996;49.546;7.400;2024-03-02T10:16:36;97291.03;;;10.48;100.00
68948;BME280;55996;49.546;7.400;2024-03-02T10:21:40;97293.31;;;10.54;100.00
68948;BME280;55996;49.546;7.400;2024-03-02T10:24:09;97284.25;;;10.92;100.00
68948;BME280;55996;49.546;7.400;2024-03-02T10:26:34;97287.13;;;11.18;100.00
68948;BME280;55996;49.546;7.400;2024-03-02T10:29:00;97283.50;;;11.20;98.61
68948;BME280;55996;49.546;7.400;2024-03-02T10:31:27;97291.34;;;11.65;83.60
68948;BME280;55996;49.546;7.400;2024-03-02T10:33:57;97278.53;;;11.75;100.00
68948;BME280;55996;49.546;7.400;2024-03-02T10:36:23;97279.47;;;11.88;89.87
68948;BME280;55996;49.546;7.400;2024-03-02T10:38:49;97278.75;;;12.01;95.24
68948;BME280;55996;49.546;7.400;2024-03-02T10:41:18;97289.56;;;12.38;94.28
68948;BME280;55996;49.546;7.400;2024-03-02T10:43:44;97285.31;;;12.50;82.47
68948;BME280;55996;49.546;7.400;2024-03-02T10:46:11;97260.75;;;12.23;85.43
68948;BME280;55996;49.546;7.400;2024-03-02T10:48:39;97283.53;;;12.50;87.71
68948;BME280;55996;49.546;7.400;2024-03-02T10:51:06;97275.53;;;12.24;84.39
68948;BME280;55996;49.546;7.400;2024-03-02T10:53:31;97276.09;;;12.71;77.64
68948;BME280;55996;49.546;7.400;2024-03-02T10:55:58;97250.09;;;11.83;80.36
68948;BME280;55996;49.546;7.400;2024-03-02T10:58:32;97249.25;;;12.11;82.74
68948;BME280;55996;49.546;7.400;2024-03-02T11:01:02;97263.38;;;11.94;83.06
68948;BME280;55996;49.546;7.400;2024-03-02T11:03:30;97265.13;;;12.23;87.99
68948;BME280;55996;49.546;7.400;2024-03-02T11:05:59;97264.44;;;12.75;86.79
68948;BME280;55996;49.546;7.400;2024-03-02T11:08:27;97260.88;;;12.49;77.54
68948;BME280;55996;49.546;7.400;2024-03-02T11:11:12;97253.28;;;11.88;78.59
68948;BME280;55996;49.546;7.400;2024-03-02T11:13:42;97251.41;;;11.90;79.49
68948;BME280;55996;49.546;7.400;2024-03-02T11:16:37;97251.88;;;12.53;78.07
68948;BME280;55996;49.546;7.400;2024-03-02T11:19:05;97247.69;;;12.91;77.08
68948;BME280;55996;49.546;7.400;2024-03-02T11:21:33;97238.66;;;12.82;74.21
68948;BME280;55996;49.546;7.400;2024-03-02T11:23:59;97235.13;;;12.96;71.04
68948;BME280;55996;49.546;7.400;2024-03-02T11:26:25;97237.88;;;13.07;72.68
68948;BME280;55996;49.546;7.400;2024-03-02T11:28:50;97214.38;;;13.19;67.79
68948;BME280;55996;49.546;7.400;2024-03-02T11:31:16;97198.63;;;13.32;67.40
68948;BME280;55996;49.546;7.400;2024-03-02T11:33:41;97229.72;;;13.77;67.62
68948;BME280;55996;49.546;7.400;2024-03-02T11:36:11;97209.56;;;13.77;76.04
68948;BME280;55996;49.546;7.400;2024-03-02T11:38:36;97218.56;;;14.36;59.29
68948;BME280;55996;49.546;7.400;2024-03-02T11:41:05;97202.91;;;13.97;64.00
68948;BME280;55996;49.546;7.400;2024-03-02T11:43:32;97223.44;;;13.79;66.72
68948;BME280;55996;49.546;7.400;2024-03-02T11:46:03;97206.41;;;14.22;63.32
68948;BME280;55996;49.546;7.400;2024-03-02T11:48:32;97205.81;;;14.67;60.85
68948;BME280;55996;49.546;7.400;2024-03-02T11:50:59;97203.53;;;14.87;58.92
68948;BME280;55996;49.546;7.400;2024-03-02T11:53:28;97191.09;;;14.89;59.05
68948;BME280;55996;49.546;7.400;2024-03-02T11:56:01;97192.06;;;14.99;58.02
68948;BME280;55996;49.546;7.400;2024-03-02T11:58:27;97188.00;;;14.95;61.21
68948;BME280;55996;49.546;7.400;2024-03-02T12:00:54;97184.25;;;14.62;59.72
68948;BME280;55996;49.546;7.400;2024-03-02T12:03:22;97194.38;;;15.15;54.93
68948;BME280;55996;49.546;7.400;2024-03-02T12:05:52;97184.91;;;15.01;56.58
68948;BME280;55996;49.546;7.400;2024-03-02T12:08:18;97177.47;;;14.95;56.13
68948;BME280;55996;49.546;7.400;2024-03-02T12:11:03;97175.13;;;15.14;57.74
68948;BME280;55996;49.546;7.400;2024-03-02T12:13:29;97163.41;;;15.19;58.49
68948;BME280;55996;49.546;7.400;2024-03-02T12:15:55;97168.41;;;15.10;57.22
68948;BME280;55996;49.546;7.400;2024-03-02T12:18:21;97154.28;;;15.00;56.76
68948;BME280;55996;49.546;7.400;2024-03-02T12:20:48;97158.19;;;14.83;59.57
68948;BME280;55996;49.546;7.400;2024-03-02T12:23:14;97152.16;;;14.45;57.38
68948;BME280;55996;49.546;7.400;2024-03-02T12:25:40;97143.94;;;14.74;58.51
68948;BME280;55996;49.546;7.400;2024-03-02T12:28:05;97138.06;;;14.46;57.13
68948;BME280;55996;49.546;7.400;2024-03-02T12:30:35;97157.41;;;13.97;60.13
68948;BME280;55996;49.546;7.400;2024-03-02T12:33:00;97147.91;;;14.07;59.74
68948;BME280;55996;49.546;7.400;2024-03-02T12:35:26;97142.25;;;14.73;56.48
68948;BME280;55996;49.546;7.400;2024-03-02T12:37:52;97138.38;;;15.01;54.55
68948;BME280;55996;49.546;7.400;2024-03-02T12:40:19;97150.78;;;14.99;56.44
68948;BME280;55996;49.546;7.400;2024-03-02T12:42:49;97143.28;;;15.06;55.74
68948;BME280;55996;49.546;7.400;2024-03-02T12:45:15;97145.47;;;15.35;56.28
68948;BME280;55996;49.546;7.400;2024-03-02T12:47:41;97142.47;;;15.62;54.21
68948;BME280;55996;49.546;7.400;2024-03-02T12:50:08;97150.00;;;15.33;54.99
68948;BME280;55996;49.546;7.400;2024-03-02T12:52:34;97157.41;;;15.05;55.62
68948;BME280;55996;49.546;7.400;2024-03-02T12:55:00;97152.25;;;15.04;55.72
68948;BME280;55996;49.546;7.400;2024-03-02T12:57:28;97134.09;;;15.46;54.36
68948;BME280;55996;49.546;7.400;2024-03-02T13:00:02;97134.91;;;15.58;54.47
68948;BME280;55996;49.546;7.400;2024-03-02T13:02:35;97132.50;;;15.21;53.18
68948;BME280;55996;49.546;7.400;2024-03-02T13:05:00;97121.34;;;14.83;55.06